sensor_id;sensor_type;location;lat;lon;timestamp;P1;durP1;ratioP1;P2;durP2;ratioP2
956;SDS011;465;48.802;9.224;2022-09-09T00:02:17;6.33;;;3.17;;
956;SDS011;465;48.802;9.224;2022-09-09T00:04:46;7.00;;;3.00;;
956;SDS011;465;48.802;9.224;2022-09-09T00:07:21;5.20;;;3.43;;
956;SDS011;465;48.802;9.224;2022-09-09T00:09:53;6.43;;;3.40;;
956;SDS011;465;48.802;9.224;2022-09-09T00:12:27;5.70;;;3.00;;
956;SDS011;465;48.802;9.224;2022-09-09T00:15:02;7.97;;;3.33;;
956;SDS011;465;48.802;9.224;2022-09-09T00:17:35;7.63;;;3.40;;
956;SDS011;465;48.802;9.224;2022-09-09T00:20:09;4.70;;;3.43;;
956;SDS011;465;48.802;9.224;2022-09-09T00:22:38;8.33;;;3.13;;
956;SDS011;465;48.802;9.224;2022-09-09T00:25:10;9.10;;;3.20;;
956;SDS011;465;48.802;9.224;2022-09-09T00:27:43;4.70;;;3.30;;
956;SDS011;465;48.802;9.224;2022-09-09T00:30:13;6.43;;;2.80;;
956;SDS011;465;48.802;9.224;2022-09-09T00:32:46;5.93;;;2.70;;
956;SDS011;465;48.802;9.224;2022-09-09T00:35:18;7.33;;;3.27;;
956;SDS011;465;48.802;9.224;2022-09-09T00:37:51;8.20;;;4.33;;
956;SDS011;465;48.802;9.224;2022-09-09T00:40:24;5.83;;;3.63;;
956;SDS011;465;48.802;9.224;2022-09-09T00:43:01;4.13;;;3.30;;
956;SDS011;465;48.802;9.224;2022-09-09T00:48:52;7.80;;;3.90;;
956;SDS011;465;48.802;9.224;2022-09-09T00:51:27;4.90;;;3.23;;
956;SDS011;465;48.802;9.224;2022-09-09T00:54:07;5.63;;;3.30;;
956;SDS011;465;48.802;9.224;2022-09-09T00:56:47;4.53;;;3.40;;
956;SDS011;465;48.802;9.224;2022-09-09T00:59:24;5.63;;;3.30;;
956;SDS011;465;48.802;9.224;2022-09-09T01:02:01;8.87;;;3.90;;
956;SDS011;465;48.802;9.224;2022-09-09T01:04:32;7.30;;;4.33;;
956;SDS011;465;48.802;9.224;2022-09-09T01:07:03;7.07;;;4.40;;
956;SDS011;465;48.802;9.224;2022-09-09T01:09:42;10.50;;;4.87;;
956;SDS011;465;48.802;9.224;2022-09-09T01:12:23;9.67;;;4.57;;
956;SDS011;465;48.802;9.224;2022-09-09T01:14:55;6.40;;;4.37;;
956;SDS011;465;48.802;9.224;2022-09-09T01:17:28;6.33;;;4.83;;
956;SDS011;465;48.802;9.224;2022-09-09T01:20:03;7.83;;;5.33;;
956;SDS011;465;48.802;9.224;2022-09-09T01:22:36;6.87;;;4.37;;
956;SDS011;465;48.802;9.224;2022-09-09T01:28:25;5.63;;;3.87;;
956;SDS011;465;48.802;9.224;2022-09-09T01:30:53;9.37;;;3.63;;
956;SDS011;465;48.802;9.224;2022-09-09T01:33:22;7.00;;;3.90;;
956;SDS011;465;48.802;9.224;2022-09-09T01:35:50;7.70;;;4.20;;
956;SDS011;465;48.802;9.224;2022-09-09T01:38:21;7.13;;;4.10;;
956;SDS011;465;48.802;9.224;2022-09-09T01:40:50;9.90;;;3.90;;
956;SDS011;465;48.802;9.224;2022-09-09T01:43:18;8.13;;;4.20;;
956;SDS011;465;48.802;9.224;2022-09-09T01:45:47;5.47;;;3.90;;
956;SDS011;465;48.802;9.224;2022-09-09T01:48:17;7.67;;;3.80;;
956;SDS011;465;48.802;9.224;2022-09-09T01:50:45;5.70;;;3.10;;
956;SDS011;465;48.802;9.224;2022-09-09T01:53:11;6.73;;;3.33;;
956;SDS011;465;48.802;9.224;2022-09-09T01:55:41;4.63;;;3.00;;
956;SDS011;465;48.802;9.224;2022-09-09T01:58:17;3.93;;;3.13;;
956;SDS011;465;48.802;9.224;2022-09-09T02:00:56;5.23;;;3.50;;
956;SDS011;465;48.802;9.224;2022-09-09T02:03:29;8.67;;;3.73;;
956;SDS011;465;48.802;9.224;2022-09-09T02:06:00;6.20;;;2.70;;
956;SDS011;465;48.802;9.224;2022-09-09T02:08:42;5.63;;;2.80;;
956;SDS011;465;48.802;9.224;2022-09-09T02:11:12;5.00;;;2.67;;
956;SDS011;465;48.802;9.224;2022-09-09T02:13:40;4.40;;;3.20;;
956;SDS011;465;48.802;9.224;2022-09-09T02:16:12;4.63;;;3.33;;
956;SDS011;465;48.802;9.224;2022-09-09T02:18:45;5.70;;;3.13;;
956;SDS011;465;48.802;9.224;2022-09-09T02:21:17;7.60;;;4.10;;
956;SDS011;465;48.802;9.224;2022-09-09T02:23:44;7.60;;;4.63;;
956;SDS011;465;48.802;9.224;2022-09-09T02:26:14;14.50;;;4.60;;
956;SDS011;465;48.802;9.224;2022-09-09T02:28:45;6.60;;;3.90;;
956;SDS011;465;48.802;9.224;2022-09-09T02:31:14;6.10;;;4.37;;
956;SDS011;465;48.802;9.224;2022-09-09T02:33:45;9.23;;;5.00;;
956;SDS011;465;48.802;9.224;2022-09-09T02:36:18;9.97;;;4.80;;
956;SDS011;465;48.802;9.224;2022-09-09T02:38:48;12.03;;;5.07;;
956;SDS011;465;48.802;9.224;2022-09-09T02:41:18;8.30;;;4.70;;
956;SDS011;465;48.802;9.224;2022-09-09T02:43:47;10.20;;;4.77;;
956;SDS011;465;48.802;9.224;2022-09-09T02:46:22;9.67;;;5.40;;
956;SDS011;465;48.802;9.224;2022-09-09T02:48:59;4.80;;;3.63;;
956;SDS011;465;48.802;9.224;2022-09-09T02:51:29;5.50;;;4.67;;
956;SDS011;465;48.802;9.224;2022-09-09T02:54:04;8.67;;;5.40;;
956;SDS011;465;48.802;9.224;2022-09-09T02:56:39;8.73;;;5.83;;
956;SDS011;465;48.802;9.224;2022-09-09T02:59:09;7.00;;;4.40;;
956;SDS011;465;48.802;9.224;2022-09-09T03:01:38;7.83;;;5.13;;
956;SDS011;465;48.802;9.224;2022-09-09T03:04:05;7.10;;;3.80;;
956;SDS011;465;48.802;9.224;2022-09-09T03:06:31;4.87;;;3.30;;
956;SDS011;465;48.802;9.224;2022-09-09T03:08:58;7.27;;;3.23;;
956;SDS011;465;48.802;9.224;2022-09-09T03:11:26;8.40;;;4.27;;
956;SDS011;465;48.802;9.224;2022-09-09T03:13:54;9.17;;;4.63;;
956;SDS011;465;48.802;9.224;2022-09-09T03:16:21;9.20;;;5.17;;
956;SDS011;465;48.802;9.224;2022-09-09T03:18:49;8.70;;;3.47;;
956;SDS011;465;48.802;9.224;2022-09-09T03:21:15;7.20;;;4.97;;
956;SDS011;465;48.802;9.224;2022-09-09T03:23:42;17.20;;;5.77;;
956;SDS011;465;48.802;9.224;2022-09-09T03:26:09;7.10;;;4.50;;
956;SDS011;465;48.802;9.224;2022-09-09T03:28:36;8.27;;;5.33;;
956;SDS011;465;48.802;9.224;2022-09-09T03:31:04;8.83;;;4.73;;
956;SDS011;465;48.802;9.224;2022-09-09T03:33:35;7.30;;;4.70;;
956;SDS011;465;48.802;9.224;2022-09-09T03:36:03;7.60;;;4.57;;
956;SDS011;465;48.802;9.224;2022-09-09T03:38:32;11.33;;;4.60;;
956;SDS011;465;48.802;9.224;2022-09-09T03:40:59;9.70;;;5.17;;
956;SDS011;465;48.802;9.224;2022-09-09T03:43:27;9.30;;;4.70;;
956;SDS011;465;48.802;9.224;2022-09-09T03:45:54;8.90;;;4.27;;
956;SDS011;465;48.802;9.224;2022-09-09T03:48:22;12.77;;;5.97;;
956;SDS011;465;48.802;9.224;2022-09-09T03:50:49;8.73;;;4.40;;
956;SDS011;465;48.802;9.224;2022-09-09T03:53:19;7.47;;;4.47;;
956;SDS011;465;48.802;9.224;2022-09-09T03:55:47;5.93;;;3.60;;
956;SDS011;465;48.802;9.224;2022-09-09T03:58:16;7.40;;;3.87;;
956;SDS011;465;48.802;9.224;2022-09-09T04:00:43;8.13;;;4.27;;
956;SDS011;465;48.802;9.224;2022-09-09T04:03:18;9.97;;;4.03;;
956;SDS011;465;48.802;9.224;2022-09-09T04:05:45;6.20;;;4.13;;
956;SDS011;465;48.802;9.224;2022-09-09T04:08:15;6.20;;;3.93;;
956;SDS011;465;48.802;9.224;2022-09-09T04:10:43;9.63;;;4.80;;
956;SDS011;465;48.802;9.224;2022-09-09T04:13:10;5.37;;;3.37;;
956;SDS011;465;48.802;9.224;2022-09-09T04:15:39;9.40;;;4.27;;
956;SDS011;465;48.802;9.224;2022-09-09T04:18:05;6.47;;;3.57;;
956;SDS011;465;48.802;9.224;2022-09-09T04:20:32;5.47;;;3.50;;
956;SDS011;465;48.802;9.224;2022-09-09T04:22:59;8.10;;;3.40;;
956;SDS011;465;48.802;9.224;2022-09-09T04:25:25;4.97;;;3.17;;
956;SDS011;465;48.802;9.224;2022-09-09T04:27:54;4.53;;;2.77;;
956;SDS011;465;48.802;9.224;2022-09-09T04:30:21;7.57;;;3.50;;
956;SDS011;465;48.802;9.224;2022-09-09T04:32:48;6.70;;;2.97;;
956;SDS011;465;48.802;9.224;2022-09-09T04:35:15;4.80;;;2.77;;
956;SDS011;465;48.802;9.224;2022-09-09T04:37:41;4.80;;;2.80;;
956;SDS011;465;48.802;9.224;2022-09-09T04:40:09;5.40;;;2.30;;
956;SDS011;465;48.802;9.224;2022-09-09T04:42:36;4.47;;;2.33;;
956;SDS011;465;48.802;9.224;2022-09-09T04:45:05;3.00;;;2.50;;
956;SDS011;465;48.802;9.224;2022-09-09T04:47:36;5.43;;;3.57;;
956;SDS011;465;48.802;9.224;2022-09-09T04:50:03;9.10;;;3.00;;
956;SDS011;465;48.802;9.224;2022-09-09T04:52:30;4.40;;;2.60;;
956;SDS011;465;48.802;9.224;2022-09-09T04:54:57;5.83;;;2.70;;
956;SDS011;465;48.802;9.224;2022-09-09T04:57:24;4.40;;;2.47;;
956;SDS011;465;48.802;9.224;2022-09-09T04:59:50;3.53;;;2.37;;
956;SDS011;465;48.802;9.224;2022-09-09T05:02:18;5.53;;;2.93;;
956;SDS011;465;48.802;9.224;2022-09-09T05:04:45;7.23;;;2.90;;
956;SDS011;465;48.802;9.224;2022-09-09T05:07:12;5.00;;;2.43;;
956;SDS011;465;48.802;9.224;2022-09-09T05:09:39;8.00;;;2.90;;
956;SDS011;465;48.802;9.224;2022-09-09T05:12:06;6.23;;;4.10;;
956;SDS011;465;48.802;9.224;2022-09-09T05:14:33;7.93;;;3.40;;
956;SDS011;465;48.802;9.224;2022-09-09T05:17:01;9.30;;;3.93;;
956;SDS011;465;48.802;9.224;2022-09-09T05:19:29;8.50;;;3.30;;
956;SDS011;465;48.802;9.224;2022-09-09T05:21:56;4.47;;;2.93;;
956;SDS011;465;48.802;9.224;2022-09-09T05:24:22;6.33;;;3.30;;
956;SDS011;465;48.802;9.224;2022-09-09T05:26:49;8.60;;;4.13;;
956;SDS011;465;48.802;9.224;2022-09-09T05:29:16;10.50;;;5.80;;
956;SDS011;465;48.802;9.224;2022-09-09T05:31:44;11.00;;;5.00;;
956;SDS011;465;48.802;9.224;2022-09-09T05:34:12;9.57;;;3.93;;
956;SDS011;465;48.802;9.224;2022-09-09T05:36:40;10.80;;;3.73;;
956;SDS011;465;48.802;9.224;2022-09-09T05:39:06;10.13;;;3.90;;
956;SDS011;465;48.802;9.224;2022-09-09T05:41:33;7.30;;;2.50;;
956;SDS011;465;48.802;9.224;2022-09-09T05:44:01;11.20;;;3.47;;
956;SDS011;465;48.802;9.224;2022-09-09T05:46:28;10.93;;;3.60;;
956;SDS011;465;48.802;9.224;2022-09-09T05:48:55;7.40;;;2.47;;
956;SDS011;465;48.802;9.224;2022-09-09T05:51:24;6.00;;;2.90;;
956;SDS011;465;48.802;9.224;2022-09-09T05:53:54;9.07;;;2.60;;
956;SDS011;465;48.802;9.224;2022-09-09T05:56:24;6.70;;;2.67;;
956;SDS011;465;48.802;9.224;2022-09-09T05:58:52;7.73;;;2.50;;
956;SDS011;465;48.802;9.224;2022-09-09T06:01:20;9.43;;;4.07;;
956;SDS011;465;48.802;9.224;2022-09-09T06:03:48;6.47;;;3.13;;
956;SDS011;465;48.802;9.224;2022-09-09T06:06:17;8.13;;;3.97;;
956;SDS011;465;48.802;9.224;2022-09-09T06:08:46;7.13;;;4.00;;
956;SDS011;465;48.802;9.224;2022-09-09T06:11:14;17.40;;;4.73;;
956;SDS011;465;48.802;9.224;2022-09-09T06:13:43;7.23;;;4.70;;
956;SDS011;465;48.802;9.224;2022-09-09T06:16:10;9.87;;;3.73;;
956;SDS011;465;48.802;9.224;2022-09-09T06:18:37;8.83;;;4.40;;
956;SDS011;465;48.802;9.224;2022-09-09T06:21:04;7.07;;;3.90;;
956;SDS011;465;48.802;9.224;2022-09-09T06:23:35;6.57;;;2.97;;
956;SDS011;465;48.802;9.224;2022-09-09T06:26:02;10.10;;;3.90;;
956;SDS011;465;48.802;9.224;2022-09-09T06:28:32;5.97;;;3.60;;
956;SDS011;465;48.802;9.224;2022-09-09T06:30:59;4.50;;;3.03;;
956;SDS011;465;48.802;9.224;2022-09-09T06:33:27;9.17;;;3.10;;
956;SDS011;465;48.802;9.224;2022-09-09T06:35:57;6.20;;;2.90;;
956;SDS011;465;48.802;9.224;2022-09-09T06:38:24;5.90;;;2.73;;
956;SDS011;465;48.802;9.224;2022-09-09T06:40:51;5.03;;;2.77;;
956;SDS011;465;48.802;9.224;2022-09-09T06:43:19;7.00;;;2.97;;
956;SDS011;465;48.802;9.224;2022-09-09T06:45:53;7.50;;;3.00;;
956;SDS011;465;48.802;9.224;2022-09-09T06:48:21;6.47;;;3.20;;
956;SDS011;465;48.802;9.224;2022-09-09T06:50:48;7.90;;;3.13;;
956;SDS011;465;48.802;9.224;2022-09-09T06:53:16;5.03;;;2.33;;
956;SDS011;465;48.802;9.224;2022-09-09T06:55:44;4.80;;;3.03;;
956;SDS011;465;48.802;9.224;2022-09-09T06:58:11;4.43;;;2.60;;
956;SDS011;465;48.802;9.224;2022-09-09T07:00:37;4.93;;;2.60;;
956;SDS011;465;48.802;9.224;2022-09-09T07:03:05;7.03;;;2.80;;
956;SDS011;465;48.802;9.224;2022-09-09T07:05:32;8.60;;;3.20;;
956;SDS011;465;48.802;9.224;2022-09-09T07:07:59;7.23;;;2.80;;
956;SDS011;465;48.802;9.224;2022-09-09T07:10:26;6.17;;;2.60;;
956;SDS011;465;48.802;9.224;2022-09-09T07:12:52;9.70;;;2.93;;
956;SDS011;465;48.802;9.224;2022-09-09T07:15:19;5.23;;;2.27;;
956;SDS011;465;48.802;9.224;2022-09-09T07:17:46;4.97;;;2.10;;
956;SDS011;465;48.802;9.224;2022-09-09T07:20:14;4.33;;;2.20;;
956;SDS011;465;48.802;9.224;2022-09-09T07:22:41;4.27;;;2.10;;
956;SDS011;465;48.802;9.224;2022-09-09T07:25:08;6.23;;;2.47;;
956;SDS011;465;48.802;9.224;2022-09-09T07:27:35;4.80;;;2.07;;
956;SDS011;465;48.802;9.224;2022-09-09T07:30:02;2.83;;;2.27;;
956;SDS011;465;48.802;9.224;2022-09-09T07:32:29;4.47;;;2.60;;
956;SDS011;465;48.802;9.224;2022-09-09T07:34:56;9.50;;;3.33;;
956;SDS011;465;48.802;9.224;2022-09-09T07:37:25;5.30;;;2.33;;
956;SDS011;465;48.802;9.224;2022-09-09T07:39:52;6.47;;;2.90;;
956;SDS011;465;48.802;9.224;2022-09-09T07:42:18;6.57;;;2.60;;
956;SDS011;465;48.802;9.224;2022-09-09T07:44:45;5.00;;;2.60;;
956;SDS011;465;48.802;9.224;2022-09-09T07:47:12;6.13;;;2.77;;
956;SDS011;465;48.802;9.224;2022-09-09T07:49:38;9.73;;;2.03;;
956;SDS011;465;48.802;9.224;2022-09-09T07:52:05;3.53;;;2.30;;
956;SDS011;465;48.802;9.224;2022-09-09T07:54:33;4.43;;;2.07;;
956;SDS011;465;48.802;9.224;2022-09-09T07:57:00;5.07;;;2.10;;
956;SDS011;465;48.802;9.224;2022-09-09T07:59:28;5.03;;;2.13;;
956;SDS011;465;48.802;9.224;2022-09-09T08:01:55;4.40;;;2.73;;
956;SDS011;465;48.802;9.224;2022-09-09T08:04:23;6.77;;;2.93;;
956;SDS011;465;48.802;9.224;2022-09-09T08:06:54;6.20;;;3.40;;
956;SDS011;465;48.802;9.224;2022-09-09T08:09:23;4.23;;;2.20;;
956;SDS011;465;48.802;9.224;2022-09-09T08:11:53;7.23;;;2.17;;
956;SDS011;465;48.802;9.224;2022-09-09T08:14:21;4.40;;;2.30;;
956;SDS011;465;48.802;9.224;2022-09-09T08:16:49;6.67;;;2.53;;
956;SDS011;465;48.802;9.224;2022-09-09T08:19:16;6.87;;;2.50;;
956;SDS011;465;48.802;9.224;2022-09-09T08:21:43;4.67;;;2.33;;
956;SDS011;465;48.802;9.224;2022-09-09T08:24:11;3.00;;;2.37;;
956;SDS011;465;48.802;9.224;2022-09-09T08:26:39;5.70;;;3.03;;
956;SDS011;465;48.802;9.224;2022-09-09T08:29:09;4.50;;;2.50;;
956;SDS011;465;48.802;9.224;2022-09-09T08:31:39;5.40;;;1.87;;
956;SDS011;465;48.802;9.224;2022-09-09T08:34:07;9.63;;;2.87;;
956;SDS011;465;48.802;9.224;2022-09-09T08:36:37;4.00;;;1.90;;
956;SDS011;465;48.802;9.224;2022-09-09T08:39:05;7.40;;;2.20;;
956;SDS011;465;48.802;9.224;2022-09-09T08:44:40;5.37;;;1.50;;
956;SDS011;465;48.802;9.224;2022-09-09T08:47:17;5.20;;;1.60;;
956;SDS011;465;48.802;9.224;2022-09-09T08:50:03;2.63;;;1.17;;
956;SDS011;465;48.802;9.224;2022-09-09T08:52:40;5.63;;;1.77;;
956;SDS011;465;48.802;9.224;2022-09-09T08:55:16;5.23;;;2.40;;
956;SDS011;465;48.802;9.224;2022-09-09T08:57:48;3.50;;;1.50;;
956;SDS011;465;48.802;9.224;2022-09-09T09:00:18;3.70;;;1.47;;
956;SDS011;465;48.802;9.224;2022-09-09T09:02:46;3.00;;;1.40;;
956;SDS011;465;48.802;9.224;2022-09-09T09:05:23;5.10;;;1.70;;
956;SDS011;465;48.802;9.224;2022-09-09T09:07:58;4.20;;;1.87;;
956;SDS011;465;48.802;9.224;2022-09-09T09:10:39;3.30;;;1.60;;
956;SDS011;465;48.802;9.224;2022-09-09T09:13:13;4.20;;;1.30;;
956;SDS011;465;48.802;9.224;2022-09-09T09:15:48;3.70;;;1.30;;
956;SDS011;465;48.802;9.224;2022-09-09T09:18:19;6.73;;;1.70;;
956;SDS011;465;48.802;9.224;2022-09-09T09:20:49;2.47;;;1.07;;
956;SDS011;465;48.802;9.224;2022-09-09T09:23:21;3.00;;;1.03;;
956;SDS011;465;48.802;9.224;2022-09-09T09:25:50;4.23;;;1.40;;
956;SDS011;465;48.802;9.224;2022-09-09T09:28:23;3.93;;;1.40;;
956;SDS011;465;48.802;9.224;2022-09-09T09:30:53;4.87;;;1.73;;
956;SDS011;465;48.802;9.224;2022-09-09T09:33:24;4.50;;;1.70;;
956;SDS011;465;48.802;9.224;2022-09-09T09:35:56;2.93;;;1.30;;
956;SDS011;465;48.802;9.224;2022-09-09T09:38:25;4.53;;;1.60;;
956;SDS011;465;48.802;9.224;2022-09-09T09:40:54;2.07;;;1.10;;
956;SDS011;465;48.802;9.224;2022-09-09T09:43:24;8.60;;;1.40;;
956;SDS011;465;48.802;9.224;2022-09-09T09:45:54;3.70;;;0.87;;
956;SDS011;465;48.802;9.224;2022-09-09T09:48:22;2.90;;;1.33;;
956;SDS011;465;48.802;9.224;2022-09-09T09:50:50;5.07;;;1.37;;
956;SDS011;465;48.802;9.224;2022-09-09T09:53:21;3.57;;;1.00;;
956;SDS011;465;48.802;9.224;2022-09-09T09:55:52;2.33;;;1.00;;
956;SDS011;465;48.802;9.224;2022-09-09T09:58:21;3.03;;;1.07;;
956;SDS011;465;48.802;9.224;2022-09-09T10:00:47;2.03;;;1.00;;
956;SDS011;465;48.802;9.224;2022-09-09T10:03:22;1.70;;;1.00;;
956;SDS011;465;48.802;9.224;2022-09-09T10:05:52;2.20;;;1.10;;
956;SDS011;465;48.802;9.224;2022-09-09T10:08:19;1.50;;;0.83;;
956;SDS011;465;48.802;9.224;2022-09-09T10:10:51;2.17;;;1.20;;
956;SDS011;465;48.802;9.224;2022-09-09T10:13:39;2.30;;;0.97;;
956;SDS011;465;48.802;9.224;2022-09-09T10:16:18;2.93;;;1.10;;
956;SDS011;465;48.802;9.224;2022-09-09T10:18:58;2.53;;;1.10;;
956;SDS011;465;48.802;9.224;2022-09-09T10:21:32;3.17;;;1.20;;
956;SDS011;465;48.802;9.224;2022-09-09T10:24:16;1.83;;;0.90;;
956;SDS011;465;48.802;9.224;2022-09-09T10:26:54;1.63;;;1.00;;
956;SDS011;465;48.802;9.224;2022-09-09T10:29:30;2.47;;;0.90;;
956;SDS011;465;48.802;9.224;2022-09-09T10:32:12;4.97;;;1.33;;
956;SDS011;465;48.802;9.224;2022-09-09T10:35:02;3.00;;;1.30;;
956;SDS011;465;48.802;9.224;2022-09-09T10:37:41;2.90;;;1.10;;
956;SDS011;465;48.802;9.224;2022-09-09T10:40:20;2.70;;;1.17;;
956;SDS011;465;48.802;9.224;2022-09-09T10:42:56;3.50;;;1.70;;
956;SDS011;465;48.802;9.224;2022-09-09T10:45:32;4.00;;;1.73;;
956;SDS011;465;48.802;9.224;2022-09-09T10:48:11;3.40;;;1.27;;
956;SDS011;465;48.802;9.224;2022-09-09T10:50:54;3.50;;;1.30;;
956;SDS011;465;48.802;9.224;2022-09-09T10:53:31;3.10;;;1.27;;
956;SDS011;465;48.802;9.224;2022-09-09T10:56:10;4.40;;;1.63;;
956;SDS011;465;48.802;9.224;2022-09-09T10:58:42;3.10;;;1.70;;
956;SDS011;465;48.802;9.224;2022-09-09T11:01:27;5.47;;;1.60;;
956;SDS011;465;48.802;9.224;2022-09-09T11:04:04;3.70;;;1.70;;
956;SDS011;465;48.802;9.224;2022-09-09T11:06:53;3.47;;;1.10;;
956;SDS011;465;48.802;9.224;2022-09-09T11:09:22;4.10;;;1.17;;
956;SDS011;465;48.802;9.224;2022-09-09T11:11:52;3.73;;;1.43;;
956;SDS011;465;48.802;9.224;2022-09-09T11:14:21;2.97;;;1.60;;
956;SDS011;465;48.802;9.224;2022-09-09T11:16:58;3.80;;;1.70;;
956;SDS011;465;48.802;9.224;2022-09-09T11:19:30;3.83;;;1.70;;
956;SDS011;465;48.802;9.224;2022-09-09T11:22:03;3.63;;;1.23;;
956;SDS011;465;48.802;9.224;2022-09-09T11:24:36;3.90;;;1.40;;
956;SDS011;465;48.802;9.224;2022-09-09T11:27:08;3.30;;;1.43;;
956;SDS011;465;48.802;9.224;2022-09-09T11:32:47;2.10;;;1.50;;
956;SDS011;465;48.802;9.224;2022-09-09T11:35:43;2.90;;;1.47;;
956;SDS011;465;48.802;9.224;2022-09-09T11:38:26;3.73;;;2.10;;
956;SDS011;465;48.802;9.224;2022-09-09T11:40:54;3.53;;;1.40;;
956;SDS011;465;48.802;9.224;2022-09-09T11:43:25;4.10;;;2.50;;
956;SDS011;465;48.802;9.224;2022-09-09T11:45:57;5.73;;;1.60;;
956;SDS011;465;48.802;9.224;2022-09-09T11:48:27;3.53;;;1.23;;
956;SDS011;465;48.802;9.224;2022-09-09T11:50:59;2.37;;;1.30;;
956;SDS011;465;48.802;9.224;2022-09-09T11:53:31;2.23;;;1.00;;
956;SDS011;465;48.802;9.224;2022-09-09T11:56:02;2.37;;;1.23;;
956;SDS011;465;48.802;9.224;2022-09-09T11:58:36;3.70;;;1.30;;
956;SDS011;465;48.802;9.224;2022-09-09T12:01:15;4.17;;;2.90;;
956;SDS011;465;48.802;9.224;2022-09-09T12:03:55;10.70;;;3.90;;
956;SDS011;465;48.802;9.224;2022-09-09T12:06:33;2.40;;;1.03;;
956;SDS011;465;48.802;9.224;2022-09-09T12:09:15;4.23;;;1.27;;
956;SDS011;465;48.802;9.224;2022-09-09T12:11:49;1.60;;;0.63;;
956;SDS011;465;48.802;9.224;2022-09-09T12:14:20;1.70;;;0.70;;
956;SDS011;465;48.802;9.224;2022-09-09T12:16:48;1.73;;;0.43;;
956;SDS011;465;48.802;9.224;2022-09-09T12:19:16;1.83;;;0.60;;
956;SDS011;465;48.802;9.224;2022-09-09T12:21:48;3.23;;;0.80;;
956;SDS011;465;48.802;9.224;2022-09-09T12:24:22;1.70;;;0.70;;
956;SDS011;465;48.802;9.224;2022-09-09T12:26:58;1.53;;;0.63;;
956;SDS011;465;48.802;9.224;2022-09-09T12:29:36;1.90;;;0.80;;
956;SDS011;465;48.802;9.224;2022-09-09T12:32:11;2.60;;;0.70;;
956;SDS011;465;48.802;9.224;2022-09-09T12:35:10;2.00;;;0.60;;
956;SDS011;465;48.802;9.224;2022-09-09T12:38:02;3.43;;;0.87;;
956;SDS011;465;48.802;9.224;2022-09-09T12:40:58;4.37;;;2.60;;
956;SDS011;465;48.802;9.224;2022-09-09T12:43:39;2.17;;;1.80;;
956;SDS011;465;48.802;9.224;2022-09-09T12:46:14;1.73;;;0.70;;
956;SDS011;465;48.802;9.224;2022-09-09T12:48:54;3.10;;;1.80;;
956;SDS011;465;48.802;9.224;2022-09-09T12:51:23;4.07;;;2.10;;
956;SDS011;465;48.802;9.224;2022-09-09T12:53:55;4.30;;;2.90;;
956;SDS011;465;48.802;9.224;2022-09-09T12:56:26;5.27;;;1.20;;
956;SDS011;465;48.802;9.224;2022-09-09T12:58:56;2.30;;;0.70;;
956;SDS011;465;48.802;9.224;2022-09-09T13:01:29;2.83;;;0.77;;
956;SDS011;465;48.802;9.224;2022-09-09T13:03:58;1.83;;;0.70;;
956;SDS011;465;48.802;9.224;2022-09-09T13:06:26;3.37;;;1.17;;
956;SDS011;465;48.802;9.224;2022-09-09T13:08:54;4.30;;;0.87;;
956;SDS011;465;48.802;9.224;2022-09-09T13:11:23;2.10;;;0.77;;
956;SDS011;465;48.802;9.224;2022-09-09T13:13:55;1.93;;;1.10;;
956;SDS011;465;48.802;9.224;2022-09-09T13:16:25;2.50;;;0.80;;
956;SDS011;465;48.802;9.224;2022-09-09T13:18:55;2.10;;;0.83;;
956;SDS011;465;48.802;9.224;2022-09-09T13:21:30;1.57;;;0.60;;
956;SDS011;465;48.802;9.224;2022-09-09T13:23:59;2.50;;;1.03;;
956;SDS011;465;48.802;9.224;2022-09-09T13:26:29;3.20;;;1.00;;
956;SDS011;465;48.802;9.224;2022-09-09T13:29:07;2.50;;;1.07;;
956;SDS011;465;48.802;9.224;2022-09-09T13:31:41;3.20;;;1.40;;
956;SDS011;465;48.802;9.224;2022-09-09T13:34:11;2.33;;;0.80;;
956;SDS011;465;48.802;9.224;2022-09-09T13:36:39;3.27;;;1.10;;
956;SDS011;465;48.802;9.224;2022-09-09T13:39:12;2.50;;;1.10;;
956;SDS011;465;48.802;9.224;2022-09-09T13:41:43;2.07;;;1.17;;
956;SDS011;465;48.802;9.224;2022-09-09T13:44:16;3.00;;;1.00;;
956;SDS011;465;48.802;9.224;2022-09-09T13:46:58;2.87;;;0.90;;
956;SDS011;465;48.802;9.224;2022-09-09T13:49:27;3.20;;;1.03;;
956;SDS011;465;48.802;9.224;2022-09-09T13:52:05;2.57;;;1.10;;
956;SDS011;465;48.802;9.224;2022-09-09T13:54:36;1.83;;;0.97;;
956;SDS011;465;48.802;9.224;2022-09-09T13:57:04;2.93;;;2.30;;
956;SDS011;465;48.802;9.224;2022-09-09T13:59:32;1.73;;;0.77;;
956;SDS011;465;48.802;9.224;2022-09-09T14:01:59;2.33;;;0.80;;
956;SDS011;465;48.802;9.224;2022-09-09T14:04:26;1.83;;;0.70;;
956;SDS011;465;48.802;9.224;2022-09-09T14:06:53;4.13;;;1.53;;
956;SDS011;465;48.802;9.224;2022-09-09T14:09:24;3.00;;;0.93;;
956;SDS011;465;48.802;9.224;2022-09-09T14:11:51;2.60;;;0.80;;
956;SDS011;465;48.802;9.224;2022-09-09T14:14:19;5.00;;;1.70;;
956;SDS011;465;48.802;9.224;2022-09-09T14:16:46;4.57;;;1.53;;
956;SDS011;465;48.802;9.224;2022-09-09T14:19:12;1.70;;;0.80;;
956;SDS011;465;48.802;9.224;2022-09-09T14:21:39;2.93;;;0.90;;
956;SDS011;465;48.802;9.224;2022-09-09T14:24:06;2.70;;;1.20;;
956;SDS011;465;48.802;9.224;2022-09-09T14:26:33;4.37;;;1.00;;
956;SDS011;465;48.802;9.224;2022-09-09T14:28:59;2.43;;;1.30;;
956;SDS011;465;48.802;9.224;2022-09-09T14:31:28;1.87;;;0.70;;
956;SDS011;465;48.802;9.224;2022-09-09T14:33:54;3.47;;;1.20;;
956;SDS011;465;48.802;9.224;2022-09-09T14:36:21;3.30;;;1.00;;
956;SDS011;465;48.802;9.224;2022-09-09T14:38:49;2.77;;;0.70;;
956;SDS011;465;48.802;9.224;2022-09-09T14:41:17;2.50;;;1.00;;
956;SDS011;465;48.802;9.224;2022-09-09T14:43:47;2.63;;;1.00;;
956;SDS011;465;48.802;9.224;2022-09-09T14:46:14;4.63;;;2.93;;
956;SDS011;465;48.802;9.224;2022-09-09T14:48:44;2.73;;;1.13;;
956;SDS011;465;48.802;9.224;2022-09-09T14:51:14;2.37;;;1.10;;
956;SDS011;465;48.802;9.224;2022-09-09T14:53:42;6.70;;;4.20;;
956;SDS011;465;48.802;9.224;2022-09-09T14:56:10;4.63;;;3.40;;
956;SDS011;465;48.802;9.224;2022-09-09T14:58:38;3.23;;;0.80;;
956;SDS011;465;48.802;9.224;2022-09-09T15:01:05;3.40;;;1.30;;
956;SDS011;465;48.802;9.224;2022-09-09T15:03:34;2.70;;;1.97;;
956;SDS011;465;48.802;9.224;2022-09-09T15:06:07;3.27;;;1.80;;
956;SDS011;465;48.802;9.224;2022-09-09T15:08:34;3.03;;;1.17;;
956;SDS011;465;48.802;9.224;2022-09-09T15:11:02;3.50;;;0.80;;
956;SDS011;465;48.802;9.224;2022-09-09T15:13:29;1.67;;;0.73;;
956;SDS011;465;48.802;9.224;2022-09-09T15:16:02;2.13;;;0.80;;
956;SDS011;465;48.802;9.224;2022-09-09T15:18:30;4.83;;;3.10;;
956;SDS011;465;48.802;9.224;2022-09-09T15:20:58;5.60;;;1.80;;
956;SDS011;465;48.802;9.224;2022-09-09T15:23:26;7.97;;;5.20;;
956;SDS011;465;48.802;9.224;2022-09-09T15:25:53;3.17;;;0.90;;
956;SDS011;465;48.802;9.224;2022-09-09T15:28:21;8.63;;;6.40;;
956;SDS011;465;48.802;9.224;2022-09-09T15:30:48;2.83;;;1.27;;
956;SDS011;465;48.802;9.224;2022-09-09T15:33:16;2.73;;;1.40;;
956;SDS011;465;48.802;9.224;2022-09-09T15:35:43;4.40;;;1.13;;
956;SDS011;465;48.802;9.224;2022-09-09T15:38:10;4.80;;;2.73;;
956;SDS011;465;48.802;9.224;2022-09-09T15:40:39;5.17;;;2.90;;
956;SDS011;465;48.802;9.224;2022-09-09T15:43:06;5.43;;;4.17;;
956;SDS011;465;48.802;9.224;2022-09-09T15:45:34;2.83;;;2.07;;
956;SDS011;465;48.802;9.224;2022-09-09T15:48:01;2.47;;;1.30;;
956;SDS011;465;48.802;9.224;2022-09-09T15:50:29;4.83;;;1.70;;
956;SDS011;465;48.802;9.224;2022-09-09T15:52:56;3.50;;;1.93;;
956;SDS011;465;48.802;9.224;2022-09-09T15:55:23;3.60;;;1.30;;
956;SDS011;465;48.802;9.224;2022-09-09T15:57:51;2.17;;;1.40;;
956;SDS011;465;48.802;9.224;2022-09-09T16:00:20;4.67;;;1.20;;
956;SDS011;465;48.802;9.224;2022-09-09T16:02:47;7.03;;;1.40;;
956;SDS011;465;48.802;9.224;2022-09-09T16:05:14;4.27;;;1.63;;
956;SDS011;465;48.802;9.224;2022-09-09T16:07:41;5.60;;;3.50;;
956;SDS011;465;48.802;9.224;2022-09-09T16:10:09;3.87;;;2.20;;
956;SDS011;465;48.802;9.224;2022-09-09T16:12:38;6.27;;;3.70;;
956;SDS011;465;48.802;9.224;2022-09-09T16:15:06;7.33;;;4.80;;
956;SDS011;465;48.802;9.224;2022-09-09T16:17:33;3.97;;;1.20;;
956;SDS011;465;48.802;9.224;2022-09-09T16:20:02;2.50;;;1.50;;